createdAt,value
2018-05-29T00:00:17.757Z,96.17
2018-05-29T00:01:17.784Z,96.08
2018-05-29T00:02:17.811Z,95.78
2018-05-29T00:03:17.837Z,96.56
2018-05-29T00:04:17.864Z,96.36
2018-05-29T00:05:17.890Z,96.56
2018-05-29T00:06:17.917Z,96.17
2018-05-29T00:07:17.945Z,96.94
2018-05-29T00:08:17.970Z,97.14
2018-05-29T00:09:17.995Z,96.84
2018-05-29T00:10:18.022Z,97.14
2018-05-29T00:11:18.047Z,97.42
2018-05-29T00:12:18.094Z,97.42
2018-05-29T00:13:18.100Z,97.91
2018-05-29T00:14:18.127Z,97.72
2018-05-29T00:15:18.152Z,98.39
2018-05-29T00:16:18.180Z,98.39
2018-05-29T00:17:18.209Z,98.30
2018-05-29T00:18:18.234Z,98.68
2018-05-29T00:19:18.258Z,98.78
2018-05-29T00:20:18.284Z,98.68
2018-05-29T00:21:18.310Z,98.92
2018-05-29T00:22:18.337Z,98.97
2018-05-29T00:23:18.363Z,98.92
2018-05-29T00:24:18.389Z,98.97
2018-05-29T00:25:18.418Z,98.88
2018-05-29T00:26:18.442Z,99.07
2018-05-29T00:27:18.467Z,99.36
2018-05-29T00:28:18.495Z,98.97
2018-05-29T00:29:18.521Z,99.60
2018-05-29T00:30:18.546Z,99.50
2018-05-29T00:31:18.572Z,99.50
2018-05-29T00:32:18.599Z,99.99
2018-05-29T00:33:18.624Z,99.98
2018-05-29T00:34:18.651Z,99.99
2018-05-29T00:35:18.675Z,99.99
2018-05-29T00:36:18.702Z,99.99
2018-05-29T00:37:18.729Z,99.99
2018-05-29T00:38:18.756Z,99.99
2018-05-29T00:39:18.781Z,99.99
2018-05-29T00:40:18.807Z,99.99
2018-05-29T00:41:18.834Z,99.99
2018-05-29T00:42:18.861Z,99.99
2018-05-29T00:43:18.885Z,99.99
2018-05-29T00:44:18.911Z,99.99
2018-05-29T00:45:18.937Z,99.99
2018-05-29T00:46:18.965Z,99.99
2018-05-29T00:47:18.989Z,99.99
2018-05-29T00:48:19.016Z,99.99
2018-05-29T00:49:19.043Z,99.99
2018-05-29T00:50:19.069Z,99.99
2018-05-29T00:51:19.093Z,99.99
2018-05-29T00:52:19.120Z,99.99
2018-05-29T00:53:19.153Z,99.99
2018-05-29T00:54:19.173Z,99.99
2018-05-29T00:55:19.198Z,99.99
2018-05-29T00:56:19.224Z,99.99
2018-05-29T00:57:19.250Z,99.99
2018-05-29T00:58:19.278Z,99.99
2018-05-29T00:59:19.302Z,99.99
2018-05-29T01:00:19.333Z,99.99
2018-05-29T01:01:19.355Z,99.99
2018-05-29T01:02:19.381Z,99.99
2018-05-29T01:03:19.425Z,99.99
2018-05-29T01:04:19.433Z,99.99
2018-05-29T01:05:19.459Z,99.99
2018-05-29T01:06:19.486Z,99.99
2018-05-29T01:07:19.510Z,99.99
2018-05-29T01:08:19.537Z,99.99
2018-05-29T01:09:19.564Z,99.99
2018-05-29T01:10:19.593Z,99.99
2018-05-29T01:11:19.615Z,99.99
2018-05-29T01:12:19.641Z,99.99
2018-05-29T01:13:19.667Z,99.99
2018-05-29T01:14:19.843Z,99.99
2018-05-29T01:15:19.718Z,99.99
2018-05-29T01:16:19.745Z,99.99
2018-05-29T01:17:19.770Z,99.99
2018-05-29T01:18:19.797Z,99.99
2018-05-29T01:19:19.822Z,99.99
2018-05-29T01:20:19.849Z,99.99
2018-05-29T01:21:19.874Z,99.99
2018-05-29T01:22:19.901Z,99.99
2018-05-29T01:23:19.925Z,99.99
2018-05-29T01:24:19.955Z,99.99
2018-05-29T01:25:19.978Z,99.99
2018-05-29T01:26:20.005Z,99.99
2018-05-29T01:27:20.030Z,99.99
2018-05-29T01:28:20.055Z,99.99
2018-05-29T01:29:20.081Z,99.99
2018-05-29T01:30:20.107Z,99.99
2018-05-29T01:31:20.133Z,99.99
2018-05-29T01:32:20.159Z,99.99
2018-05-29T01:33:20.185Z,99.99
2018-05-29T01:34:20.213Z,99.99
2018-05-29T01:35:20.236Z,99.99
2018-05-29T01:36:20.262Z,99.99
2018-05-29T01:37:20.288Z,99.99
2018-05-29T01:38:20.314Z,99.99
2018-05-29T01:39:20.339Z,99.99
2018-05-29T01:40:20.366Z,99.99
2018-05-29T01:41:20.391Z,99.99
2018-05-29T01:42:20.417Z,99.99
2018-05-29T01:43:20.446Z,99.99
2018-05-29T01:44:20.471Z,99.99
2018-05-29T01:45:20.494Z,99.99
2018-05-29T01:46:20.520Z,99.99
2018-05-29T01:47:20.545Z,99.99
2018-05-29T01:48:20.571Z,99.99
2018-05-29T01:49:20.597Z,99.99
2018-05-29T01:50:20.623Z,99.99
2018-05-29T01:51:20.649Z,99.99
2018-05-29T01:52:20.675Z,99.99
2018-05-29T01:53:20.699Z,99.99
2018-05-29T01:54:20.726Z,99.99
2018-05-29T01:55:20.754Z,99.99
2018-05-29T01:56:20.777Z,99.99
2018-05-29T01:57:20.802Z,99.99
2018-05-29T01:58:20.831Z,99.99
2018-05-29T01:59:20.857Z,99.99
2018-05-29T02:00:20.883Z,99.99
2018-05-29T02:01:20.905Z,99.99
2018-05-29T02:02:20.931Z,99.99
2018-05-29T02:03:20.957Z,99.99
2018-05-29T02:04:21.047Z,99.99
2018-05-29T02:05:21.008Z,99.99
2018-05-29T02:06:21.034Z,99.99
2018-05-29T02:07:21.058Z,99.99
2018-05-29T02:08:21.084Z,99.99
2018-05-29T02:09:21.111Z,99.99
2018-05-29T02:10:21.135Z,99.99
2018-05-29T02:11:21.161Z,99.99
2018-05-29T02:12:21.187Z,99.99
2018-05-29T02:13:21.212Z,99.99
2018-05-29T02:14:21.237Z,99.99
2018-05-29T02:15:21.262Z,99.99
2018-05-29T02:16:21.289Z,99.99
2018-05-29T02:17:21.318Z,99.99
2018-05-29T02:18:21.340Z,99.99
2018-05-29T02:19:21.364Z,99.99
2018-05-29T02:20:21.391Z,99.99
2018-05-29T02:21:21.416Z,99.99
2018-05-29T02:22:21.442Z,99.99
2018-05-29T02:23:21.466Z,99.99
2018-05-29T02:24:21.492Z,99.99
2018-05-29T02:25:21.521Z,99.99
2018-05-29T02:26:21.545Z,99.99
2018-05-29T02:27:21.718Z,99.99
2018-05-29T02:28:21.593Z,99.99
2018-05-29T02:29:21.619Z,99.99
2018-05-29T02:30:21.660Z,99.99
2018-05-29T02:31:21.674Z,99.99
2018-05-29T02:32:21.696Z,99.99
2018-05-29T02:33:21.723Z,99.99
2018-05-29T02:34:21.748Z,99.99
2018-05-29T02:35:21.775Z,99.99
2018-05-29T02:36:21.798Z,99.99
2018-05-29T02:37:21.823Z,99.99
2018-05-29T02:38:21.848Z,99.99
2018-05-29T02:39:21.875Z,99.99
2018-05-29T02:40:21.900Z,99.99
2018-05-29T02:41:21.924Z,99.99
2018-05-29T02:42:21.951Z,99.99
2018-05-29T02:43:21.976Z,99.99
2018-05-29T02:44:22.002Z,99.99
2018-05-29T02:45:22.027Z,99.99
2018-05-29T02:46:22.052Z,99.99
2018-05-29T02:47:22.227Z,99.99
2018-05-29T02:48:22.102Z,99.99
2018-05-29T02:49:22.128Z,99.99
2018-05-29T02:50:22.155Z,99.99
2018-05-29T02:51:22.177Z,99.99
2018-05-29T02:52:22.204Z,99.99
2018-05-29T02:53:22.229Z,99.99
2018-05-29T02:54:22.254Z,99.99
2018-05-29T02:55:22.279Z,99.99
2018-05-29T02:56:22.304Z,99.99
2018-05-29T02:57:22.330Z,99.99
2018-05-29T02:58:22.356Z,99.99
2018-05-29T02:59:22.384Z,99.99
2018-05-29T03:00:22.409Z,99.99
2018-05-29T03:01:22.432Z,99.99
2018-05-29T03:02:22.457Z,99.99
2018-05-29T03:03:22.481Z,99.99
2018-05-29T03:04:22.508Z,99.99
2018-05-29T03:05:22.532Z,99.99
2018-05-29T03:06:22.560Z,99.99
2018-05-29T03:07:22.582Z,99.99
2018-05-29T03:08:22.607Z,99.99
2018-05-29T03:09:22.633Z,99.99
2018-05-29T03:10:22.658Z,99.99
2018-05-29T03:11:22.682Z,99.99
2018-05-29T03:12:22.708Z,99.99
2018-05-29T03:13:22.735Z,99.99
2018-05-29T03:14:22.760Z,99.99
2018-05-29T03:15:22.783Z,99.99
2018-05-29T03:16:22.810Z,99.99
2018-05-29T03:17:22.835Z,99.99
2018-05-29T03:18:22.861Z,99.99
2018-05-29T03:19:22.886Z,99.99
2018-05-29T03:20:22.911Z,99.99
2018-05-29T03:21:22.935Z,99.99
2018-05-29T03:22:22.961Z,99.99
2018-05-29T03:23:22.986Z,99.99
2018-05-29T03:24:23.012Z,99.99
2018-05-29T03:25:23.038Z,99.99
2018-05-29T03:26:23.065Z,99.99
2018-05-29T03:27:23.086Z,99.99
2018-05-29T03:28:23.112Z,99.99
2018-05-29T03:29:23.137Z,99.99
2018-05-29T03:30:23.165Z,99.99
2018-05-29T03:31:23.189Z,99.99
2018-05-29T03:32:23.212Z,99.99
2018-05-29T03:33:23.238Z,99.99
2018-05-29T03:34:23.275Z,99.99
2018-05-29T03:35:23.288Z,99.99
2018-05-29T03:36:23.313Z,99.99
2018-05-29T03:37:23.341Z,99.99
2018-05-29T03:38:23.364Z,99.99
2018-05-29T03:39:23.397Z,99.99
2018-05-29T03:40:23.414Z,99.99
2018-05-29T03:41:23.439Z,99.99
2018-05-29T03:42:23.466Z,99.99
2018-05-29T03:43:23.489Z,99.99
2018-05-29T03:44:23.515Z,99.99
2018-05-29T03:45:23.540Z,99.99
2018-05-29T03:46:23.566Z,99.99
2018-05-29T03:47:23.591Z,99.99
2018-05-29T03:48:23.616Z,99.99
2018-05-29T03:49:23.640Z,99.99
2018-05-29T03:50:23.666Z,99.99
2018-05-29T03:51:23.727Z,99.99
2018-05-29T03:52:23.716Z,99.99
2018-05-29T03:53:23.742Z,99.99
2018-05-29T03:54:23.767Z,99.99
2018-05-29T03:55:23.793Z,99.99
2018-05-29T03:56:23.817Z,99.99
2018-05-29T03:57:23.842Z,99.99
2018-05-29T03:58:23.868Z,99.99
2018-05-29T03:59:24.042Z,99.99
2018-05-29T04:00:23.918Z,99.99
2018-05-29T04:01:23.944Z,99.99
2018-05-29T04:02:23.970Z,99.99
2018-05-29T04:03:23.994Z,99.99
2018-05-29T04:04:24.019Z,99.99
2018-05-29T04:05:24.044Z,99.99
2018-05-29T04:06:24.070Z,99.99
2018-05-29T04:07:24.095Z,99.99
2018-05-29T04:08:24.121Z,99.99
2018-05-29T04:09:24.162Z,99.99
2018-05-29T04:10:24.175Z,99.99
2018-05-29T04:11:24.195Z,99.99
2018-05-29T04:12:24.221Z,99.99
2018-05-29T04:13:24.246Z,99.99
2018-05-29T04:14:24.275Z,99.99
2018-05-29T04:15:24.297Z,99.99
2018-05-29T04:16:24.323Z,99.99
2018-05-29T04:17:24.352Z,99.99
2018-05-29T04:18:24.373Z,99.99
2018-05-29T04:19:24.397Z,99.99
2018-05-29T04:20:24.423Z,99.99
2018-05-29T04:21:24.448Z,99.99
2018-05-29T04:22:24.473Z,99.99
2018-05-29T04:23:24.497Z,99.99
2018-05-29T04:24:24.524Z,99.99
2018-05-29T04:25:24.550Z,99.99
2018-05-29T04:26:24.574Z,99.99
2018-05-29T04:27:24.598Z,99.99
2018-05-29T04:28:24.624Z,99.99
2018-05-29T04:29:24.650Z,99.99
2018-05-29T04:30:24.679Z,99.99
2018-05-29T04:31:24.700Z,99.99
2018-05-29T04:32:24.725Z,99.99
2018-05-29T04:33:24.753Z,99.99
2018-05-29T04:34:24.785Z,99.99
2018-05-29T04:35:24.800Z,99.99
2018-05-29T04:36:24.826Z,99.99
2018-05-29T04:37:24.853Z,99.99
2018-05-29T04:38:24.877Z,99.99
2018-05-29T04:39:24.901Z,99.99
2018-05-29T04:40:24.929Z,99.99
2018-05-29T04:41:24.952Z,99.99
2018-05-29T04:42:24.978Z,99.99
2018-05-29T04:43:25.002Z,99.99
2018-05-29T04:44:25.028Z,99.99
2018-05-29T04:45:25.055Z,99.99
2018-05-29T04:46:25.081Z,99.99
2018-05-29T04:47:25.105Z,99.99
2018-05-29T04:48:25.130Z,99.99
2018-05-29T04:49:25.156Z,99.99
2018-05-29T04:50:25.183Z,99.99
2018-05-29T04:51:25.205Z,99.99
2018-05-29T04:52:25.231Z,99.99
2018-05-29T04:53:25.260Z,99.99
2018-05-29T04:54:25.283Z,99.99
2018-05-29T04:55:25.307Z,99.99
2018-05-29T04:56:25.335Z,99.99
2018-05-29T04:57:25.358Z,99.99
2018-05-29T04:58:25.385Z,99.99
2018-05-29T04:59:25.408Z,99.99
2018-05-29T05:00:25.435Z,99.99
2018-05-29T05:01:25.464Z,99.99
2018-05-29T05:02:25.486Z,99.99
2018-05-29T05:03:25.512Z,99.99
2018-05-29T05:04:25.572Z,99.99
2018-05-29T05:05:25.563Z,99.99
2018-05-29T05:06:25.589Z,99.99
2018-05-29T05:07:25.612Z,99.99
2018-05-29T05:08:25.638Z,99.99
2018-05-29T05:09:25.664Z,99.99
2018-05-29T05:10:25.690Z,99.99
2018-05-29T05:11:25.714Z,99.99
2018-05-29T05:12:25.744Z,99.99
2018-05-29T05:13:25.767Z,99.99
2018-05-29T05:14:25.844Z,99.99
2018-05-29T05:15:25.818Z,99.99
2018-05-29T05:16:25.843Z,99.99
2018-05-29T05:17:25.869Z,99.99
2018-05-29T05:18:25.896Z,99.99
2018-05-29T05:19:25.922Z,99.99
2018-05-29T05:20:25.947Z,99.99
2018-05-29T05:21:25.972Z,99.99
2018-05-29T05:22:26.000Z,99.99
2018-05-29T05:23:26.024Z,99.99
2018-05-29T05:24:26.052Z,99.99
2018-05-29T05:25:26.075Z,99.99
2018-05-29T05:26:26.101Z,99.99
2018-05-29T05:27:26.126Z,99.99
2018-05-29T05:28:26.153Z,99.99
2018-05-29T05:29:26.181Z,99.99
2018-05-29T05:30:26.205Z,99.99
2018-05-29T05:31:26.230Z,99.99
2018-05-29T05:32:26.258Z,99.99
2018-05-29T05:33:26.286Z,99.99
2018-05-29T05:34:26.314Z,99.99
2018-05-29T05:35:26.395Z,99.99
2018-05-29T05:36:26.360Z,99.99
2018-05-29T05:37:26.387Z,99.99
2018-05-29T05:38:26.414Z,99.99
2018-05-29T05:39:26.437Z,99.99
2018-05-29T05:40:26.471Z,99.99
2018-05-29T05:41:26.490Z,99.99
2018-05-29T05:42:26.517Z,99.99
2018-05-29T05:43:26.544Z,99.99
2018-05-29T05:44:26.568Z,99.99
2018-05-29T05:45:26.595Z,99.99
2018-05-29T05:46:26.624Z,99.99
2018-05-29T05:47:26.646Z,99.99
2018-05-29T05:48:26.674Z,99.99
2018-05-29T05:49:26.701Z,99.99
2018-05-29T05:50:26.728Z,99.26
2018-05-29T05:51:26.753Z,99.55
2018-05-29T05:52:26.780Z,98.97
2018-05-29T05:53:26.807Z,98.78
2018-05-29T05:54:26.835Z,98.83
2018-05-29T05:55:26.863Z,98.93
2018-05-29T05:56:26.887Z,99.31
2018-05-29T05:57:26.914Z,97.57
2018-05-29T05:58:26.984Z,97.62
2018-05-29T05:59:26.969Z,97.04
2018-05-29T06:00:26.998Z,96.46
2018-05-29T06:01:27.024Z,95.78
2018-05-29T06:02:27.050Z,95.29
2018-05-29T06:03:27.085Z,93.89
2018-05-29T06:04:27.105Z,93.89
2018-05-29T06:05:27.136Z,93.70
2018-05-29T06:06:27.162Z,93.21
2018-05-29T06:07:27.189Z,93.89
2018-05-29T06:08:27.215Z,93.99
2018-05-29T06:09:27.243Z,93.21
2018-05-29T06:10:27.271Z,92.54
2018-05-29T06:11:27.299Z,92.73
2018-05-29T06:12:27.330Z,91.71
2018-05-29T06:13:27.356Z,91.61
2018-05-29T06:14:27.383Z,90.64
2018-05-29T06:15:27.411Z,90.36
2018-05-29T06:16:27.496Z,90.55
2018-05-29T06:17:27.468Z,90.55
2018-05-29T06:18:27.498Z,90.64
2018-05-29T06:19:27.532Z,89.68
2018-05-29T06:20:27.553Z,90.36
2018-05-29T06:21:27.593Z,90.36
2018-05-29T06:22:27.663Z,88.61
2018-05-29T06:23:27.639Z,88.65
2018-05-29T06:24:27.717Z,88.56
2018-05-29T06:25:27.697Z,87.88
2018-05-29T06:26:27.727Z,87.63
2018-05-29T06:27:27.755Z,87.24
2018-05-29T06:28:27.785Z,86.66
2018-05-29T06:29:27.814Z,86.47
2018-05-29T06:30:27.844Z,86.76
2018-05-29T06:31:27.870Z,87.24
2018-05-29T06:32:27.902Z,86.08
2018-05-29T06:33:27.930Z,85.79
2018-05-29T06:34:27.959Z,86.66
2018-05-29T06:35:27.987Z,86.72
2018-05-29T06:36:28.019Z,87.40
2018-05-29T06:37:28.046Z,87.68
2018-05-29T06:38:28.073Z,88.07
2018-05-29T06:39:28.106Z,87.78
2018-05-29T06:40:28.132Z,88.07
2018-05-29T06:41:28.196Z,87.98
2018-05-29T06:42:28.192Z,88.17
2018-05-29T06:43:28.221Z,88.27
2018-05-29T06:44:28.259Z,88.85
2018-05-29T06:45:28.278Z,88.95
2018-05-29T06:46:28.309Z,88.65
2018-05-29T06:47:28.338Z,88.85
2018-05-29T06:48:28.363Z,88.46
2018-05-29T06:49:28.392Z,87.68
2018-05-29T06:50:28.422Z,86.52
2018-05-29T06:51:28.448Z,86.18
2018-05-29T06:52:28.668Z,86.86
2018-05-29T06:53:28.506Z,85.99
2018-05-29T06:54:28.535Z,85.69
2018-05-29T06:55:28.575Z,85.30
2018-05-29T06:56:28.592Z,84.67
2018-05-29T06:57:28.625Z,84.09
2018-05-29T06:58:28.650Z,83.80
2018-05-29T06:59:28.678Z,83.25
2018-05-29T07:00:28.706Z,81.70
2018-05-29T07:01:28.737Z,81.21
2018-05-29T07:02:29.018Z,81.02
2018-05-29T07:03:28.792Z,81.31
2018-05-29T07:04:28.836Z,79.86
2018-05-29T07:05:28.854Z,79.96
2018-05-29T07:06:28.892Z,79.18
2018-05-29T07:07:28.911Z,79.61
2018-05-29T07:08:28.953Z,79.99
2018-05-29T07:09:28.970Z,79.71
2018-05-29T07:10:29.001Z,79.22
2018-05-29T07:11:29.030Z,78.83
2018-05-29T07:12:29.056Z,78.25
2018-05-29T07:13:29.092Z,78.19
2018-05-29T07:14:29.146Z,77.12
2018-05-29T07:15:29.163Z,76.83
2018-05-29T07:16:29.184Z,76.54
2018-05-29T07:17:29.216Z,76.87
2018-05-29T07:18:29.238Z,76.38
2018-05-29T07:19:29.306Z,75.12
2018-05-29T07:20:29.295Z,73.37
2018-05-29T07:21:29.326Z,73.46
2018-05-29T07:22:29.556Z,74.15
2018-05-29T07:23:29.385Z,73.89
2018-05-29T07:24:29.423Z,73.50
2018-05-29T07:25:29.452Z,73.40
2018-05-29T07:26:29.476Z,74.08
2018-05-29T07:27:29.506Z,73.79
2018-05-29T07:28:29.538Z,74.34
2018-05-29T07:29:29.575Z,74.05
2018-05-29T07:30:29.603Z,74.05
2018-05-29T07:31:29.629Z,74.54
2018-05-29T07:32:29.658Z,74.73
2018-05-29T07:33:29.691Z,73.56
2018-05-29T07:34:29.726Z,73.79
2018-05-29T07:35:29.749Z,73.11
2018-05-29T07:36:29.780Z,72.92
2018-05-29T07:37:29.812Z,73.11
2018-05-29T07:38:29.846Z,73.66
2018-05-29T07:39:29.902Z,73.37
2018-05-29T07:40:29.904Z,73.46
2018-05-29T07:41:29.933Z,72.63
2018-05-29T07:42:29.974Z,72.59
2018-05-29T07:43:29.993Z,73.27
2018-05-29T07:44:30.025Z,73.66
2018-05-29T07:45:30.060Z,72.30
2018-05-29T07:46:30.085Z,73.37
2018-05-29T07:47:30.124Z,71.52
2018-05-29T07:48:30.144Z,71.62
2018-05-29T07:49:30.176Z,71.94
2018-05-29T07:50:30.207Z,72.43
2018-05-29T07:51:30.235Z,72.43
2018-05-29T07:52:30.266Z,70.97
2018-05-29T07:53:30.295Z,70.72
2018-05-29T07:54:30.327Z,69.55
2018-05-29T07:55:30.355Z,69.35
2018-05-29T07:56:30.385Z,69.16
2018-05-29T07:57:30.416Z,69.26
2018-05-29T07:58:30.445Z,69.39
2018-05-29T07:59:30.477Z,69.68
2018-05-29T08:00:30.504Z,68.80
2018-05-29T08:01:30.546Z,69.29
2018-05-29T08:02:30.566Z,69.97
2018-05-29T08:03:30.594Z,69.48
2018-05-29T08:04:30.625Z,67.35
2018-05-29T08:05:30.655Z,68.22
2018-05-29T08:06:30.753Z,68.61
2018-05-29T08:07:30.715Z,68.16
2018-05-29T08:08:30.745Z,67.18
2018-05-29T08:09:30.780Z,66.99
2018-05-29T08:10:30.811Z,67.54
2018-05-29T08:11:30.834Z,68.71
2018-05-29T08:12:30.865Z,68.80
2018-05-29T08:13:30.894Z,69.20
2018-05-29T08:14:30.931Z,68.26
2018-05-29T08:15:30.964Z,67.47
2018-05-29T08:16:30.988Z,66.99
2018-05-29T08:17:31.016Z,66.89
2018-05-29T08:18:31.128Z,66.41
2018-05-29T08:19:31.075Z,66.89
2018-05-29T08:20:31.107Z,68.35
2018-05-29T08:21:31.139Z,68.45
2018-05-29T08:22:31.184Z,68.35
2018-05-29T08:23:31.194Z,66.79
2018-05-29T08:24:31.435Z,67.28
2018-05-29T08:25:31.257Z,67.93
2018-05-29T08:26:31.290Z,67.93
2018-05-29T08:27:31.315Z,67.63
2018-05-29T08:28:31.347Z,68.26
2018-05-29T08:29:31.376Z,67.77
2018-05-29T08:30:31.409Z,66.96
2018-05-29T08:31:31.435Z,67.54
2018-05-29T08:32:31.469Z,68.12
2018-05-29T08:33:31.502Z,68.22
2018-05-29T08:34:31.530Z,68.61
2018-05-29T08:35:31.561Z,68.32
2018-05-29T08:36:31.588Z,68.22
2018-05-29T08:37:31.617Z,67.08
2018-05-29T08:38:31.646Z,66.99
2018-05-29T08:39:31.859Z,67.08
2018-05-29T08:40:31.705Z,66.60
2018-05-29T08:41:31.736Z,65.26
2018-05-29T08:42:31.767Z,64.87
2018-05-29T08:43:31.795Z,64.84
2018-05-29T08:44:31.825Z,64.20
2018-05-29T08:45:31.856Z,65.26
2018-05-29T08:46:31.890Z,65.72
2018-05-29T08:47:31.929Z,65.33
2018-05-29T08:48:31.945Z,65.53
2018-05-29T08:49:31.976Z,64.65
2018-05-29T08:50:32.009Z,63.61
2018-05-29T08:51:32.037Z,63.51
2018-05-29T08:52:32.067Z,63.22
2018-05-29T08:53:32.097Z,62.83
2018-05-29T08:54:32.129Z,62.93
2018-05-29T08:55:32.156Z,63.42
2018-05-29T08:56:32.187Z,63.74
2018-05-29T08:57:32.221Z,63.45
2018-05-29T08:58:32.248Z,62.57
2018-05-29T08:59:32.277Z,62.38
2018-05-29T09:00:32.314Z,63.15
2018-05-29T09:01:32.337Z,62.76
2018-05-29T09:02:32.368Z,62.60
2018-05-29T09:03:32.616Z,62.79
2018-05-29T09:04:32.434Z,62.31
2018-05-29T09:05:32.461Z,62.79
2018-05-29T09:06:32.490Z,62.96
2018-05-29T09:07:32.522Z,62.38
2018-05-29T09:08:32.550Z,62.86
2018-05-29T09:09:32.579Z,62.38
2018-05-29T09:10:32.611Z,61.72
2018-05-29T09:11:32.641Z,61.53
2018-05-29T09:12:32.670Z,61.27
2018-05-29T09:13:32.700Z,61.63
2018-05-29T09:14:32.731Z,61.04
2018-05-29T09:15:32.762Z,61.27
2018-05-29T09:16:32.792Z,61.43
2018-05-29T09:17:32.823Z,60.91
2018-05-29T09:18:32.854Z,59.19
2018-05-29T09:19:32.883Z,58.31
2018-05-29T09:20:32.914Z,58.80
2018-05-29T09:21:32.944Z,59.45
2018-05-29T09:22:33.226Z,58.87
2018-05-29T09:23:33.008Z,58.67
2018-05-29T09:24:33.036Z,59.55
2018-05-29T09:25:33.071Z,58.50
2018-05-29T09:26:33.101Z,57.82
2018-05-29T09:27:33.327Z,57.73
2018-05-29T09:28:33.160Z,57.82
2018-05-29T09:29:33.236Z,58.48
2018-05-29T09:30:33.219Z,59.06
2018-05-29T09:31:33.253Z,58.12
2018-05-29T09:32:33.282Z,56.00
2018-05-29T09:33:33.310Z,55.87
2018-05-29T09:34:33.341Z,55.87
2018-05-29T09:35:33.432Z,55.02
2018-05-29T09:36:33.400Z,54.24
2018-05-29T09:37:33.440Z,54.05
2018-05-29T09:38:33.466Z,53.75
2018-05-29T09:39:33.493Z,52.87
2018-05-29T09:40:33.528Z,53.19
2018-05-29T09:41:33.569Z,52.51
2018-05-29T09:42:33.590Z,52.39
2018-05-29T09:43:33.615Z,52.09
2018-05-29T09:44:33.645Z,51.19
2018-05-29T09:45:33.675Z,52.07
2018-05-29T09:46:33.707Z,52.95
2018-05-29T09:47:33.735Z,53.36
2018-05-29T09:48:33.766Z,53.07
2018-05-29T09:49:33.797Z,52.41
2018-05-29T09:50:33.828Z,52.12
2018-05-29T09:51:33.858Z,52.48
2018-05-29T09:52:33.890Z,52.39
2018-05-29T09:53:33.921Z,52.41
2018-05-29T09:54:33.959Z,51.24
2018-05-29T09:55:33.982Z,52.39
2018-05-29T09:56:34.011Z,52.36
2018-05-29T09:57:34.043Z,53.07
2018-05-29T09:58:34.078Z,53.46
2018-05-29T09:59:34.103Z,52.87
2018-05-29T10:00:34.283Z,52.02
2018-05-29T10:01:34.171Z,52.19
2018-05-29T10:02:34.194Z,52.41
2018-05-29T10:03:34.226Z,52.87
2018-05-29T10:04:34.255Z,53.07
2018-05-29T10:05:34.291Z,53.75
2018-05-29T10:06:34.317Z,53.56
2018-05-29T10:07:34.349Z,52.80
2018-05-29T10:08:34.378Z,52.90
2018-05-29T10:09:34.409Z,52.80
2018-05-29T10:10:34.440Z,52.87
2018-05-29T10:11:34.469Z,53.56
2018-05-29T10:12:34.501Z,53.36
2018-05-29T10:13:34.532Z,54.14
2018-05-29T10:14:34.717Z,54.14
2018-05-29T10:15:34.593Z,53.88
2018-05-29T10:16:34.624Z,53.39
2018-05-29T10:17:34.654Z,53.78
2018-05-29T10:18:34.684Z,54.07
2018-05-29T10:19:34.716Z,54.53
2018-05-29T10:20:34.746Z,55.77
2018-05-29T10:21:34.781Z,55.77
2018-05-29T10:22:34.958Z,55.80
2018-05-29T10:23:34.837Z,54.75
2018-05-29T10:24:34.907Z,54.46
2018-05-29T10:25:34.899Z,54.10
2018-05-29T10:26:34.931Z,53.42
2018-05-29T10:27:34.959Z,53.42
2018-05-29T10:28:34.991Z,54.56
2018-05-29T10:29:35.023Z,54.46
2018-05-29T10:30:35.052Z,54.36
2018-05-29T10:31:35.082Z,53.42
2018-05-29T10:32:35.113Z,53.71
2018-05-29T10:33:35.148Z,53.61
2018-05-29T10:34:35.179Z,52.54
2018-05-29T10:35:35.207Z,52.05
2018-05-29T10:36:35.236Z,52.25
2018-05-29T10:37:35.268Z,52.15
2018-05-29T10:38:35.299Z,51.78
2018-05-29T10:39:35.330Z,51.78
2018-05-29T10:40:35.360Z,51.98
2018-05-29T10:41:35.390Z,51.78
2018-05-29T10:42:35.425Z,52.25
2018-05-29T10:43:35.454Z,52.34
2018-05-29T10:44:35.482Z,52.56
2018-05-29T10:45:35.514Z,53.05
2018-05-29T10:46:35.545Z,52.83
2018-05-29T10:47:35.575Z,52.95
2018-05-29T10:48:35.606Z,53.74
2018-05-29T10:49:35.638Z,53.22
2018-05-29T10:50:35.669Z,54.10
2018-05-29T10:51:35.699Z,53.25
2018-05-29T10:52:35.776Z,51.66
2018-05-29T10:53:35.763Z,52.44
2018-05-29T10:54:35.792Z,52.34
2018-05-29T10:55:35.823Z,51.27
2018-05-29T10:56:35.854Z,51.37
2018-05-29T10:57:35.885Z,51.86
2018-05-29T10:58:35.918Z,51.27
2018-05-29T10:59:35.947Z,51.76
2018-05-29T11:00:35.978Z,51.86
2018-05-29T11:01:36.010Z,51.86
2018-05-29T11:02:36.042Z,51.39
2018-05-29T11:03:36.071Z,51.20
2018-05-29T11:04:36.102Z,51.20
2018-05-29T11:05:36.134Z,50.44
2018-05-29T11:06:36.165Z,49.95
2018-05-29T11:07:36.196Z,49.46
2018-05-29T11:08:36.227Z,49.73
2018-05-29T11:09:36.259Z,49.82
2018-05-29T11:10:36.289Z,50.12
2018-05-29T11:11:36.319Z,50.42
2018-05-29T11:12:36.351Z,50.83
2018-05-29T11:13:36.382Z,50.12
2018-05-29T11:14:36.413Z,51.00
2018-05-29T11:15:36.444Z,50.22
2018-05-29T11:16:36.479Z,50.42
2018-05-29T11:17:36.512Z,50.98
2018-05-29T11:18:36.538Z,51.37
2018-05-29T11:19:36.568Z,51.66
2018-05-29T11:20:36.600Z,51.27
2018-05-29T11:21:36.632Z,51.10
2018-05-29T11:22:36.664Z,51.10
2018-05-29T11:23:36.699Z,50.93
2018-05-29T11:24:36.725Z,50.32
2018-05-29T11:25:36.756Z,49.51
2018-05-29T11:26:36.788Z,50.10
2018-05-29T11:27:36.818Z,50.98
2018-05-29T11:28:36.849Z,51.73
2018-05-29T11:29:36.880Z,51.92
2018-05-29T11:30:36.912Z,52.02
2018-05-29T11:31:36.941Z,52.34
2018-05-29T11:32:36.973Z,51.49
2018-05-29T11:33:37.007Z,50.81
2018-05-29T11:34:37.035Z,49.73
2018-05-29T11:35:37.065Z,49.82
2018-05-29T11:36:37.096Z,49.43
2018-05-29T11:37:37.128Z,49.26
2018-05-29T11:38:37.162Z,49.16
2018-05-29T11:39:37.197Z,49.36
2018-05-29T11:40:37.221Z,49.26
2018-05-29T11:41:37.254Z,49.46
2018-05-29T11:42:37.283Z,49.36
2018-05-29T11:43:37.313Z,49.29
2018-05-29T11:44:37.344Z,49.36
2018-05-29T11:45:37.376Z,49.36
2018-05-29T11:46:37.408Z,49.36
2018-05-29T11:47:37.438Z,49.26
2018-05-29T11:48:37.485Z,49.75
2018-05-29T11:49:37.502Z,49.55
2018-05-29T11:50:37.686Z,49.65
2018-05-29T11:51:37.563Z,49.24
2018-05-29T11:52:37.594Z,50.02
2018-05-29T11:53:37.626Z,49.90
2018-05-29T11:54:37.657Z,50.20
2018-05-29T11:55:37.687Z,50.78
2018-05-29T11:56:37.723Z,50.68
2018-05-29T11:57:37.751Z,51.07
2018-05-29T11:58:37.781Z,51.46
2018-05-29T11:59:37.963Z,51.27
2018-05-29T12:00:37.858Z,51.37
2018-05-29T12:01:37.876Z,50.78
2018-05-29T12:02:37.906Z,50.88
2018-05-29T12:03:37.937Z,51.00
2018-05-29T12:04:37.970Z,50.71
2018-05-29T12:05:38.005Z,50.83
2018-05-29T12:06:38.032Z,50.83
2018-05-29T12:07:38.092Z,50.93
2018-05-29T12:08:38.092Z,50.83
2018-05-29T12:09:38.124Z,50.07
2018-05-29T12:10:38.156Z,50.05
2018-05-29T12:11:38.191Z,50.83
2018-05-29T12:12:38.217Z,50.73
2018-05-29T12:13:38.250Z,50.73
2018-05-29T12:14:38.284Z,50.73
2018-05-29T12:15:38.312Z,51.03
2018-05-29T12:16:38.342Z,50.73
2018-05-29T12:17:38.375Z,51.12
2018-05-29T12:18:38.656Z,50.07
2018-05-29T12:19:38.438Z,48.99
2018-05-29T12:20:38.474Z,49.77
2018-05-29T12:21:38.500Z,49.85
2018-05-29T12:22:38.532Z,51.20
2018-05-29T12:23:38.562Z,51.39
2018-05-29T12:24:38.594Z,51.37
2018-05-29T12:25:38.625Z,51.27
2018-05-29T12:26:38.659Z,52.25
2018-05-29T12:27:38.688Z,52.34
2018-05-29T12:28:38.720Z,53.29
2018-05-29T12:29:38.754Z,53.78
2018-05-29T12:30:38.784Z,53.71
2018-05-29T12:31:38.814Z,53.71
2018-05-29T12:32:38.846Z,52.93
2018-05-29T12:33:38.876Z,52.25
2018-05-29T12:34:38.908Z,52.34
2018-05-29T12:35:38.939Z,52.93
2018-05-29T12:36:38.970Z,53.32
2018-05-29T12:37:39.000Z,53.05
2018-05-29T12:38:39.033Z,51.49
2018-05-29T12:39:39.062Z,51.59
2018-05-29T12:40:39.097Z,51.20
2018-05-29T12:41:39.127Z,52.17
2018-05-29T12:42:39.157Z,52.66
2018-05-29T12:43:39.188Z,52.86
2018-05-29T12:44:39.220Z,52.34
2018-05-29T12:45:39.250Z,52.56
2018-05-29T12:46:39.282Z,52.17
2018-05-29T12:47:39.313Z,51.88
2018-05-29T12:48:39.344Z,52.08
2018-05-29T12:49:39.376Z,51.98
2018-05-29T12:50:39.408Z,51.51
2018-05-29T12:51:39.438Z,51.42
2018-05-29T12:52:39.470Z,51.61